createdAt,value
2023-01-24T00:01:20.382Z,46.50
2023-01-24T00:03:49.014Z,46.85
2023-01-24T00:06:17.658Z,43.90
2023-01-24T00:08:46.051Z,43.67
2023-01-24T00:11:14.960Z,43.08
2023-01-24T00:13:43.387Z,42.78
2023-01-24T00:16:16.624Z,43.05
2023-01-24T00:18:45.497Z,39.30
2023-01-24T00:21:15.415Z,35.53
2023-01-24T00:23:45.904Z,37.15
2023-01-24T00:26:14.716Z,39.40
2023-01-24T00:28:45.310Z,39.97
2023-01-24T00:31:15.409Z,38.83
2023-01-24T00:33:44.137Z,38.60
2023-01-24T00:36:12.496Z,39.00
2023-01-24T00:38:41.364Z,38.38
2023-01-24T00:41:09.904Z,38.28
2023-01-24T00:43:38.431Z,36.92
2023-01-24T00:46:08.420Z,34.92
2023-01-24T00:48:38.322Z,37.75
2023-01-24T00:51:07.133Z,38.63
2023-01-24T00:53:35.475Z,37.90
2023-01-24T00:56:03.655Z,37.90
2023-01-24T00:58:33.453Z,36.45
2023-01-24T01:01:04.307Z,35.58
2023-01-24T01:03:33.012Z,34.30
2023-01-24T01:06:05.292Z,35.13
2023-01-24T01:08:34.436Z,34.33
2023-01-24T01:11:02.686Z,36.55
2023-01-24T01:13:31.125Z,35.83
2023-01-24T01:16:04.194Z,35.17
2023-01-24T01:18:32.862Z,36.30
2023-01-24T01:21:02.405Z,38.85
2023-01-24T01:23:31.619Z,35.08
2023-01-24T01:26:04.442Z,36.47
2023-01-24T01:28:33.139Z,33.78
2023-01-24T01:31:01.383Z,35.22
2023-01-24T01:33:29.867Z,36.08
2023-01-24T01:35:57.999Z,33.50
2023-01-24T01:38:29.034Z,37.20
2023-01-24T01:40:57.799Z,33.88
2023-01-24T01:43:28.771Z,35.20
2023-01-24T01:46:00.508Z,34.67
2023-01-24T01:48:37.179Z,33.22
2023-01-24T01:51:13.658Z,31.13
2023-01-24T01:53:49.402Z,30.88
2023-01-24T01:56:27.138Z,33.95
2023-01-24T01:58:57.584Z,34.80
2023-01-24T02:01:25.991Z,34.17
2023-01-24T02:04:02.372Z,31.85
2023-01-24T02:06:45.472Z,32.30
2023-01-24T02:09:18.871Z,33.95
2023-01-24T02:11:47.765Z,31.10
2023-01-24T02:14:37.493Z,29.25
2023-01-24T02:17:06.174Z,30.10
2023-01-24T02:19:52.461Z,29.98
2023-01-24T02:22:27.666Z,28.83
2023-01-24T02:25:08.288Z,28.75
2023-01-24T02:27:38.090Z,29.55
2023-01-24T02:30:07.322Z,30.08
2023-01-24T02:32:35.797Z,29.85
2023-01-24T02:35:05.426Z,33.33
2023-01-24T02:37:37.469Z,27.58
2023-01-24T02:40:09.428Z,26.80
2023-01-24T02:42:40.940Z,29.63
2023-01-24T02:45:15.592Z,29.45
2023-01-24T02:47:48.637Z,30.35
2023-01-24T02:50:17.527Z,27.55
2023-01-24T02:53:03.183Z,28.45
2023-01-24T02:55:31.509Z,27.77
2023-01-24T02:58:06.693Z,26.90
2023-01-24T03:00:37.944Z,27.45
2023-01-24T03:03:06.683Z,27.67
2023-01-24T03:05:57.403Z,26.88
2023-01-24T03:08:33.981Z,27.33
2023-01-24T03:11:04.211Z,25.55
2023-01-24T03:13:52.703Z,25.17
2023-01-24T03:16:38.625Z,26.15
2023-01-24T03:19:25.532Z,27.88
2023-01-24T03:22:11.410Z,26.38
2023-01-24T03:24:57.763Z,27.15
2023-01-24T03:27:43.123Z,28.48
2023-01-24T03:30:33.188Z,29.95
2023-01-24T03:33:20.018Z,28.50
2023-01-24T03:35:54.807Z,26.95
2023-01-24T03:38:43.117Z,27.45
2023-01-24T03:41:12.547Z,28.42
2023-01-24T03:43:42.195Z,28.75
2023-01-24T03:46:13.095Z,27.92
2023-01-24T03:48:46.854Z,29.15
2023-01-24T03:51:33.136Z,28.15
2023-01-24T03:54:01.613Z,25.27
2023-01-24T03:56:44.772Z,25.80
2023-01-24T03:59:12.988Z,24.83
2023-01-24T04:01:43.679Z,25.88
2023-01-24T04:04:19.568Z,26.38
2023-01-24T04:06:48.043Z,22.98
2023-01-24T04:09:17.442Z,23.30
2023-01-24T04:11:46.245Z,24.95
2023-01-24T04:14:19.857Z,25.73
2023-01-24T04:16:59.102Z,27.73
2023-01-24T04:19:32.857Z,25.48
2023-01-24T04:22:01.432Z,26.55
2023-01-24T04:24:32.376Z,26.95
2023-01-24T04:27:00.552Z,24.63
2023-01-24T04:29:35.843Z,22.33
2023-01-24T04:32:07.911Z,25.52
2023-01-24T04:34:50.277Z,26.25
2023-01-24T04:37:26.211Z,25.45
2023-01-24T04:39:54.616Z,24.45
2023-01-24T04:42:22.882Z,23.02
2023-01-24T04:44:51.653Z,25.52
2023-01-24T04:47:21.426Z,25.80
2023-01-24T04:49:49.888Z,24.40
2023-01-24T04:52:20.565Z,23.20
2023-01-24T04:54:59.675Z,21.73
2023-01-24T04:57:27.895Z,22.83
2023-01-24T04:59:56.297Z,24.17
2023-01-24T05:02:26.745Z,24.20
2023-01-24T05:04:54.910Z,25.30
2023-01-24T05:07:23.894Z,26.35
2023-01-24T05:09:59.590Z,21.88
2023-01-24T05:12:28.259Z,21.13
2023-01-24T05:14:59.309Z,21.13
2023-01-24T05:17:29.082Z,21.33
2023-01-24T05:19:58.695Z,22.30
2023-01-24T05:22:27.451Z,23.48
2023-01-24T05:24:55.550Z,20.25
2023-01-24T05:27:24.034Z,23.27
2023-01-24T05:29:58.442Z,23.77
2023-01-24T05:32:28.598Z,21.98
2023-01-24T05:34:56.830Z,23.00
2023-01-24T05:37:26.908Z,22.25
2023-01-24T05:39:55.004Z,23.45
2023-01-24T05:42:23.437Z,26.00
2023-01-24T05:44:53.325Z,24.35
2023-01-24T05:47:21.832Z,25.27
2023-01-24T05:49:53.604Z,24.63
2023-01-24T05:52:23.185Z,21.45
2023-01-24T05:54:53.861Z,22.17
2023-01-24T05:57:31.263Z,22.35
2023-01-24T06:00:15.710Z,23.50
2023-01-24T06:02:52.789Z,22.15
2023-01-24T06:05:22.512Z,23.05
2023-01-24T06:07:50.972Z,23.02
2023-01-24T06:10:19.194Z,22.23
2023-01-24T06:12:55.985Z,22.88
2023-01-24T06:15:24.529Z,22.13
2023-01-24T06:17:52.990Z,23.13
2023-01-24T06:20:23.362Z,20.75
2023-01-24T06:22:55.307Z,22.42
2023-01-24T06:25:26.794Z,24.33
2023-01-24T06:27:55.424Z,21.58
2023-01-24T06:30:24.127Z,19.95
2023-01-24T06:33:16.280Z,22.17
2023-01-24T06:35:55.279Z,23.77
2023-01-24T06:38:25.612Z,24.70
2023-01-24T06:40:58.052Z,21.90
2023-01-24T06:43:26.811Z,20.92
2023-01-24T06:45:55.046Z,23.05
2023-01-24T06:48:23.246Z,23.83
2023-01-24T06:50:53.160Z,26.90
2023-01-24T06:53:21.318Z,26.13
2023-01-24T06:55:49.728Z,28.10
2023-01-24T06:58:17.852Z,26.38
2023-01-24T07:00:46.224Z,28.48
2023-01-24T07:03:14.398Z,28.90
2023-01-24T07:05:42.527Z,27.40
2023-01-24T07:08:13.362Z,27.60
2023-01-24T07:10:42.299Z,26.10
2023-01-24T07:13:10.593Z,26.02
2023-01-24T07:15:38.799Z,24.45
2023-01-24T07:18:08.340Z,24.95
2023-01-24T07:20:36.952Z,26.40
2023-01-24T07:23:05.778Z,25.95
2023-01-24T07:25:38.107Z,26.52
2023-01-24T07:28:07.344Z,25.10
2023-01-24T07:30:35.411Z,26.10
2023-01-24T07:33:03.899Z,27.83
2023-01-24T07:35:31.941Z,27.20
2023-01-24T07:38:01.262Z,25.55
2023-01-24T07:40:29.326Z,27.17
2023-01-24T07:43:01.225Z,27.80
2023-01-24T07:45:29.398Z,28.00
2023-01-24T07:47:58.764Z,25.95
2023-01-24T07:50:27.706Z,24.77
2023-01-24T07:52:56.536Z,25.15
2023-01-24T07:55:25.498Z,24.92
2023-01-24T07:57:53.914Z,24.67
2023-01-24T08:00:23.997Z,24.40
2023-01-24T08:02:52.433Z,26.02
2023-01-24T08:05:20.660Z,24.10
2023-01-24T08:07:48.791Z,29.80
2023-01-24T08:10:17.191Z,27.80
2023-01-24T08:12:45.222Z,26.48
2023-01-24T08:15:13.504Z,23.05
2023-01-24T08:17:42.999Z,22.42
2023-01-24T08:20:12.751Z,24.05
2023-01-24T08:22:56.140Z,20.65
2023-01-24T08:25:26.142Z,21.45
2023-01-24T08:27:54.699Z,22.45
2023-01-24T08:30:23.365Z,25.50
2023-01-24T08:33:00.862Z,25.17
2023-01-24T08:35:29.316Z,23.75
2023-01-24T08:37:57.470Z,23.58
2023-01-24T08:40:26.166Z,23.02
2023-01-24T08:42:54.567Z,21.73
2023-01-24T08:45:23.266Z,23.02
2023-01-24T08:47:54.941Z,23.35
2023-01-24T08:50:24.014Z,21.83
2023-01-24T08:52:56.627Z,22.70
2023-01-24T08:55:25.332Z,22.92
2023-01-24T08:57:53.439Z,25.23
2023-01-24T09:00:22.310Z,21.63
2023-01-24T09:02:53.941Z,24.08
2023-01-24T09:05:23.428Z,25.33
2023-01-24T09:07:51.775Z,24.38
2023-01-24T09:10:20.219Z,23.65
2023-01-24T09:12:48.369Z,24.42
2023-01-24T09:15:16.621Z,25.00
2023-01-24T09:17:45.307Z,24.83
2023-01-24T09:20:15.556Z,27.45
2023-01-24T09:22:43.695Z,27.50
2023-01-24T09:25:11.999Z,27.10
2023-01-24T09:27:42.965Z,25.63
2023-01-24T09:30:12.845Z,24.70
2023-01-24T09:32:41.015Z,23.55
2023-01-24T09:35:09.988Z,24.98
2023-01-24T09:37:41.105Z,24.50
2023-01-24T09:40:21.850Z,24.10
2023-01-24T09:42:59.905Z,25.23
2023-01-24T09:45:33.371Z,23.05
2023-01-24T09:48:04.819Z,24.10
2023-01-24T09:50:40.892Z,24.20
2023-01-24T09:53:18.135Z,24.15
2023-01-24T09:55:47.030Z,24.27
2023-01-24T09:58:30.029Z,24.48
2023-01-24T10:01:00.795Z,25.05
2023-01-24T10:03:29.850Z,24.35
2023-01-24T10:06:02.300Z,26.20
2023-01-24T10:08:39.615Z,26.70
2023-01-24T10:11:25.782Z,26.35
2023-01-24T10:14:21.455Z,27.25
2023-01-24T10:17:19.619Z,28.13
2023-01-24T10:20:07.967Z,24.13
2023-01-24T10:23:02.291Z,22.90
2023-01-24T10:25:40.067Z,23.52
2023-01-24T10:28:19.409Z,21.83
2023-01-24T10:30:54.046Z,22.05
2023-01-24T10:33:22.408Z,23.15
2023-01-24T10:35:57.967Z,23.95
2023-01-24T10:38:27.119Z,23.48
2023-01-24T10:40:59.740Z,23.95
2023-01-24T10:43:32.680Z,25.67
2023-01-24T10:46:14.413Z,25.02
2023-01-24T10:48:46.588Z,23.13
2023-01-24T10:51:17.691Z,22.63
2023-01-24T10:53:46.601Z,21.80
2023-01-24T10:56:18.262Z,20.50
2023-01-24T10:58:57.588Z,21.23
2023-01-24T11:01:35.092Z,19.45
2023-01-24T11:04:15.559Z,19.38
2023-01-24T11:06:47.664Z,21.25
2023-01-24T11:09:18.068Z,22.13
2023-01-24T11:11:50.805Z,20.80
2023-01-24T11:14:22.217Z,17.15
2023-01-24T11:16:53.062Z,19.05
2023-01-24T11:19:28.268Z,21.83
2023-01-24T11:21:58.156Z,22.63
2023-01-24T11:24:26.802Z,17.60
2023-01-24T11:27:05.561Z,19.65
2023-01-24T11:29:34.848Z,19.05
2023-01-24T11:32:20.340Z,20.83
2023-01-24T11:34:57.015Z,21.40
2023-01-24T11:37:58.410Z,21.02
2023-01-24T11:40:35.307Z,21.80
2023-01-24T11:43:24.456Z,19.05
2023-01-24T11:46:15.215Z,21.48
2023-01-24T11:48:54.270Z,21.55
2023-01-24T11:51:34.872Z,21.52
2023-01-24T11:54:23.605Z,22.95
2023-01-24T11:56:59.129Z,21.33
2023-01-24T11:59:42.257Z,19.98
2023-01-24T12:02:29.620Z,21.63
2023-01-24T12:05:13.838Z,18.33
2023-01-24T12:07:53.553Z,20.40
2023-01-24T12:10:30.197Z,21.88
2023-01-24T12:13:07.601Z,19.42
2023-01-24T12:15:47.350Z,21.08
2023-01-24T12:18:28.449Z,21.83
2023-01-24T12:21:00.923Z,22.13
2023-01-24T12:23:43.294Z,22.98
2023-01-24T12:26:19.033Z,22.02
2023-01-24T12:28:54.026Z,21.52
2023-01-24T12:31:30.399Z,23.10
2023-01-24T12:34:03.513Z,22.67
2023-01-24T12:36:37.509Z,22.42
2023-01-24T12:39:16.008Z,21.40
2023-01-24T12:41:48.299Z,21.50
2023-01-24T12:44:30.292Z,20.50
2023-01-24T12:47:22.406Z,19.98
2023-01-24T12:50:10.695Z,19.25
2023-01-24T12:52:43.327Z,20.85
2023-01-24T12:55:16.498Z,19.73
2023-01-24T12:57:47.975Z,20.63
2023-01-24T13:00:18.735Z,18.13
2023-01-24T13:03:14.980Z,17.63
2023-01-24T13:05:50.687Z,19.15
2023-01-24T13:08:29.677Z,19.65
2023-01-24T13:11:08.364Z,20.25
2023-01-24T13:13:43.844Z,20.55
2023-01-24T13:16:56.944Z,20.83
2023-01-24T13:19:40.427Z,22.67
2023-01-24T13:22:28.638Z,20.23
2023-01-24T13:25:11.011Z,19.48
2023-01-24T13:27:46.035Z,19.63
2023-01-24T13:30:26.264Z,21.88
2023-01-24T13:32:55.670Z,16.60
2023-01-24T13:35:27.348Z,17.48
2023-01-24T13:38:04.771Z,15.05
2023-01-24T13:40:36.118Z,19.33
2023-01-24T13:43:05.575Z,20.30
2023-01-24T13:45:57.843Z,22.02
2023-01-24T13:48:56.328Z,22.45
2023-01-24T13:51:50.246Z,22.90
2023-01-24T13:54:37.521Z,23.25
2023-01-24T13:57:25.362Z,23.50
2023-01-24T14:00:09.770Z,19.60
2023-01-24T14:02:44.389Z,19.17
2023-01-24T14:05:49.447Z,19.05
2023-01-24T14:08:36.420Z,24.65
2023-01-24T14:11:44.970Z,20.42
2023-01-24T14:14:34.161Z,23.75
2023-01-24T14:17:34.726Z,23.10
2023-01-24T14:20:03.476Z,21.80
2023-01-24T14:22:46.400Z,20.77
2023-01-24T14:25:42.193Z,21.20
2023-01-24T14:28:22.858Z,20.05
2023-01-24T14:30:56.368Z,19.75
2023-01-24T14:33:30.886Z,19.88
2023-01-24T14:36:25.293Z,20.42
2023-01-24T14:39:19.663Z,21.60
2023-01-24T14:41:51.979Z,21.58
2023-01-24T14:44:23.641Z,20.60
2023-01-24T14:46:57.597Z,22.50
2023-01-24T14:49:32.308Z,19.08
2023-01-24T14:52:15.907Z,19.63
2023-01-24T14:54:46.945Z,20.42
2023-01-24T14:57:25.036Z,20.63
2023-01-24T15:00:16.899Z,20.45
2023-01-24T15:02:53.962Z,20.52
2023-01-24T15:05:27.827Z,21.90
2023-01-24T15:07:56.626Z,21.13
2023-01-24T15:10:26.626Z,19.80
2023-01-24T15:12:58.617Z,21.13
2023-01-24T15:15:27.605Z,18.48
2023-01-24T15:18:01.891Z,18.55
2023-01-24T15:20:31.413Z,19.52
2023-01-24T15:23:03.761Z,19.45
2023-01-24T15:25:34.150Z,20.08
2023-01-24T15:28:12.911Z,20.38
2023-01-24T15:30:53.247Z,19.80
2023-01-24T15:33:21.506Z,18.67
2023-01-24T15:35:50.621Z,16.50
2023-01-24T15:38:22.030Z,17.13
2023-01-24T15:40:56.213Z,17.13
2023-01-24T15:43:48.457Z,19.95
2023-01-24T15:46:41.335Z,19.38
2023-01-24T15:49:36.479Z,19.70
2023-01-24T15:52:23.645Z,18.80
2023-01-24T15:54:58.373Z,17.42
2023-01-24T15:57:29.092Z,20.15
2023-01-24T16:00:02.273Z,17.48
2023-01-24T16:02:37.917Z,15.93
2023-01-24T16:05:13.932Z,16.13
2023-01-24T16:07:42.069Z,15.38
2023-01-24T16:10:14.035Z,16.88
2023-01-24T16:12:43.100Z,17.35
2023-01-24T16:15:18.161Z,16.90
2023-01-24T16:17:46.607Z,18.30
2023-01-24T16:20:20.623Z,17.67
2023-01-24T16:22:49.151Z,17.98
2023-01-24T16:25:20.041Z,17.85
2023-01-24T16:27:48.816Z,18.38
2023-01-24T16:30:20.606Z,16.08
2023-01-24T16:32:49.284Z,17.02
2023-01-24T16:35:18.028Z,15.23
2023-01-24T16:37:46.543Z,15.40
2023-01-24T16:40:17.241Z,14.18
2023-01-24T16:42:47.137Z,14.25
2023-01-24T16:45:17.144Z,13.40
2023-01-24T16:47:47.220Z,14.65
2023-01-24T16:50:17.187Z,15.07
2023-01-24T16:52:45.627Z,15.63
2023-01-24T16:55:14.073Z,15.90
2023-01-24T16:57:42.296Z,14.02
2023-01-24T17:00:14.198Z,14.40
2023-01-24T17:02:43.620Z,13.25
2023-01-24T17:05:13.962Z,13.82
2023-01-24T17:07:42.153Z,12.57
2023-01-24T17:10:12.956Z,13.45
2023-01-24T17:12:41.054Z,13.73
2023-01-24T17:15:10.051Z,14.45
2023-01-24T17:17:38.925Z,13.88
2023-01-24T17:20:08.440Z,13.70
2023-01-24T17:22:38.087Z,14.43
2023-01-24T17:25:07.090Z,14.43
2023-01-24T17:27:35.714Z,15.48
2023-01-24T17:30:04.601Z,14.48
2023-01-24T17:32:36.480Z,14.20
2023-01-24T17:35:04.728Z,14.27
2023-01-24T17:37:32.910Z,14.52
2023-01-24T17:40:02.931Z,14.60
2023-01-24T17:42:31.432Z,14.77
2023-01-24T17:44:59.848Z,14.43
2023-01-24T17:47:29.366Z,14.32
2023-01-24T17:49:57.805Z,12.90
2023-01-24T17:52:25.956Z,14.88
2023-01-24T17:54:54.216Z,14.40
2023-01-24T17:57:23.698Z,15.13
2023-01-24T17:59:52.020Z,15.32
2023-01-24T18:02:20.266Z,15.85
2023-01-24T18:04:48.590Z,15.45
2023-01-24T18:07:16.740Z,16.27
2023-01-24T18:09:44.913Z,16.27
2023-01-24T18:12:13.047Z,15.15
2023-01-24T18:14:43.848Z,15.60
2023-01-24T18:17:12.233Z,16.55
2023-01-24T18:19:40.369Z,15.50
2023-01-24T18:22:08.564Z,14.95
2023-01-24T18:24:36.651Z,15.85
2023-01-24T18:27:05.177Z,16.17
2023-01-24T18:29:33.315Z,16.02
2023-01-24T18:32:03.151Z,16.77
2023-01-24T18:34:31.391Z,16.15
2023-01-24T18:36:59.860Z,17.85
2023-01-24T18:39:32.194Z,18.63
2023-01-24T18:42:04.849Z,16.75
2023-01-24T18:44:33.100Z,16.30
2023-01-24T18:47:02.567Z,17.27
2023-01-24T18:49:31.300Z,17.40
2023-01-24T18:51:59.476Z,15.90
2023-01-24T18:54:27.851Z,16.15
2023-01-24T18:56:56.022Z,15.45
2023-01-24T18:59:24.476Z,16.20
2023-01-24T19:01:52.629Z,17.67
2023-01-24T19:04:22.478Z,17.73
2023-01-24T19:06:50.884Z,16.60
2023-01-24T19:09:19.886Z,17.90
2023-01-24T19:11:48.080Z,16.88
2023-01-24T19:14:18.472Z,17.92
2023-01-24T19:16:46.928Z,17.20
2023-01-24T19:19:16.390Z,16.80
2023-01-24T19:21:47.766Z,17.33
2023-01-24T19:24:16.114Z,18.63
2023-01-24T19:26:44.534Z,18.88
2023-01-24T19:29:12.796Z,18.65
2023-01-24T19:31:41.774Z,18.48
2023-01-24T19:34:11.037Z,17.52
2023-01-24T19:36:41.713Z,18.40
2023-01-24T19:39:14.369Z,19.13
2023-01-24T19:41:42.679Z,19.10
2023-01-24T19:44:21.026Z,19.42
2023-01-24T19:46:51.164Z,19.63
2023-01-24T19:49:19.896Z,18.88
2023-01-24T19:51:48.348Z,19.10
2023-01-24T19:54:18.342Z,20.10
2023-01-24T19:56:46.568Z,19.88
2023-01-24T19:59:15.368Z,20.25
2023-01-24T20:01:43.606Z,19.77
2023-01-24T20:04:23.688Z,20.00
2023-01-24T20:06:55.130Z,19.80
2023-01-24T20:09:25.923Z,20.73
2023-01-24T20:11:54.675Z,18.88
2023-01-24T20:14:24.192Z,19.10
2023-01-24T20:16:52.493Z,18.40
2023-01-24T20:19:28.509Z,19.67
2023-01-24T20:21:57.978Z,19.42
2023-01-24T20:24:28.001Z,19.73
2023-01-24T20:26:56.530Z,18.42
2023-01-24T20:29:26.028Z,20.23
2023-01-24T20:31:54.851Z,19.98
2023-01-24T20:34:23.954Z,19.25
2023-01-24T20:36:52.559Z,16.83
2023-01-24T20:39:21.585Z,17.30
2023-01-24T20:41:51.186Z,17.90
2023-01-24T20:44:26.384Z,17.60
2023-01-24T20:46:55.420Z,17.15
2023-01-24T20:49:23.821Z,16.02
2023-01-24T20:51:52.072Z,14.63
2023-01-24T20:54:21.849Z,14.57
2023-01-24T20:56:56.310Z,12.85
2023-01-24T20:59:24.743Z,13.55
2023-01-24T21:01:53.083Z,14.10
2023-01-24T21:04:21.251Z,14.52
2023-01-24T21:06:49.832Z,14.40
2023-01-24T21:09:18.115Z,13.48
2023-01-24T21:11:47.594Z,13.90
2023-01-24T21:14:17.632Z,11.93
2023-01-24T21:16:45.759Z,12.63
2023-01-24T21:19:18.567Z,12.73
2023-01-24T21:21:48.362Z,13.05
2023-01-24T21:24:34.354Z,12.60
2023-01-24T21:27:03.495Z,13.85
2023-01-24T21:29:33.105Z,12.70
2023-01-24T21:32:02.072Z,12.63
2023-01-24T21:34:30.465Z,11.95
2023-01-24T21:36:58.958Z,11.73
2023-01-24T21:39:27.310Z,11.63
2023-01-24T21:41:55.239Z,12.32
2023-01-24T21:44:24.115Z,11.63
2023-01-24T21:46:54.335Z,12.07
2023-01-24T21:49:22.579Z,12.40
2023-01-24T21:51:52.535Z,12.25
2023-01-24T21:54:22.381Z,12.15
2023-01-24T21:57:23.910Z,11.43
2023-01-24T21:59:58.242Z,12.95
2023-01-24T22:02:29.929Z,12.82
2023-01-24T22:04:59.348Z,11.32
2023-01-24T22:07:29.347Z,12.80
2023-01-24T22:09:59.634Z,11.35
2023-01-24T22:12:28.011Z,12.63
2023-01-24T22:14:56.497Z,12.20
2023-01-24T22:17:27.415Z,12.73
2023-01-24T22:19:58.052Z,11.85
2023-01-24T22:23:05.277Z,11.00
2023-01-24T22:25:44.719Z,10.93
2023-01-24T22:28:18.722Z,10.70
2023-01-24T22:30:47.818Z,10.85
2023-01-24T22:33:18.134Z,11.52
2023-01-24T22:35:48.528Z,11.65
2023-01-24T22:38:16.816Z,11.68
2023-01-24T22:40:44.993Z,11.80
2023-01-24T22:43:13.576Z,11.73
2023-01-24T22:45:41.730Z,11.82
2023-01-24T22:48:14.634Z,12.05
2023-01-24T22:50:44.949Z,11.63
2023-01-24T22:53:13.672Z,12.07
2023-01-24T22:55:42.387Z,12.23
2023-01-24T22:58:10.761Z,12.20
2023-01-24T23:00:39.000Z,12.15
2023-01-24T23:03:07.169Z,11.05
2023-01-24T23:05:35.506Z,12.45
2023-01-24T23:08:05.246Z,12.43
2023-01-24T23:10:33.531Z,12.52
2023-01-24T23:13:18.926Z,13.07
2023-01-24T23:16:04.507Z,12.68
2023-01-24T23:18:53.953Z,13.13
2023-01-24T23:21:35.868Z,12.85
2023-01-24T23:24:05.663Z,13.43
2023-01-24T23:26:34.067Z,13.30
2023-01-24T23:29:27.089Z,13.82
2023-01-24T23:31:55.671Z,14.27
2023-01-24T23:34:41.508Z,14.13
2023-01-24T23:37:10.186Z,13.57
2023-01-24T23:39:39.706Z,14.05
2023-01-24T23:42:07.885Z,14.73
2023-01-24T23:44:36.075Z,13.07
2023-01-24T23:47:04.173Z,13.32
2023-01-24T23:49:32.249Z,13.20
2023-01-24T23:52:00.495Z,13.95
2023-01-24T23:54:28.796Z,13.93
2023-01-24T23:56:58.445Z,13.55
2023-01-24T23:59:27.209Z,13.70
